createdAt,value
2022-09-26T00:01:29.875Z,13.10
2022-09-26T00:03:59.730Z,12.80
2022-09-26T00:06:26.614Z,12.40
2022-09-26T00:08:54.261Z,12.40
2022-09-26T00:11:28.792Z,12.70
2022-09-26T00:14:00.224Z,12.80
2022-09-26T00:16:27.299Z,12.70
2022-09-26T00:18:55.603Z,12.90
2022-09-26T00:21:26.232Z,12.80
2022-09-26T00:23:54.305Z,12.70
2022-09-26T00:26:23.039Z,12.50
2022-09-26T00:28:51.340Z,12.70
2022-09-26T00:31:21.965Z,12.50
2022-09-26T00:33:48.998Z,12.30
2022-09-26T00:36:16.373Z,11.90
2022-09-26T00:38:43.098Z,12.20
2022-09-26T00:41:09.818Z,12.10
2022-09-26T00:43:45.729Z,12.20
2022-09-26T00:46:30.273Z,12.40
2022-09-26T00:49:06.108Z,12.40
2022-09-26T00:51:42.681Z,12.50
2022-09-26T00:54:13.149Z,12.60
2022-09-26T00:56:43.717Z,12.70
2022-09-26T00:59:16.932Z,12.60
2022-09-26T01:01:43.855Z,12.60
2022-09-26T01:04:14.602Z,12.50
2022-09-26T01:06:42.162Z,12.60
2022-09-26T01:09:09.297Z,12.50
2022-09-26T01:11:38.922Z,12.40
2022-09-26T01:14:07.964Z,12.40
2022-09-26T01:16:39.328Z,12.10
2022-09-26T01:19:34.023Z,12.10
2022-09-26T01:22:14.789Z,12.40
2022-09-26T01:24:58.855Z,12.00
2022-09-26T01:27:28.246Z,12.20
2022-09-26T01:30:07.971Z,12.50
2022-09-26T01:33:01.224Z,12.50
2022-09-26T01:35:27.903Z,12.60
2022-09-26T01:37:59.576Z,12.40
2022-09-26T01:40:53.871Z,12.40
2022-09-26T01:43:30.921Z,12.60
2022-09-26T01:46:16.275Z,12.60
2022-09-26T01:48:48.364Z,12.60
2022-09-26T01:51:33.186Z,12.20
2022-09-26T01:54:23.149Z,12.40
2022-09-26T01:56:52.126Z,12.20
2022-09-26T01:59:25.138Z,12.30
2022-09-26T02:01:56.510Z,12.20
2022-09-26T02:04:28.693Z,12.40
2022-09-26T02:07:04.036Z,12.50
2022-09-26T02:09:41.324Z,12.50
2022-09-26T02:12:13.415Z,12.70
2022-09-26T02:14:43.142Z,12.70
2022-09-26T02:17:18.929Z,12.80
2022-09-26T02:20:01.671Z,12.70
2022-09-26T02:22:32.562Z,12.60
2022-09-26T02:24:59.426Z,12.40
2022-09-26T02:27:27.217Z,12.40
2022-09-26T02:29:54.542Z,12.30
2022-09-26T02:32:27.061Z,12.50
2022-09-26T02:34:54.971Z,12.60
2022-09-26T02:37:25.251Z,12.60
2022-09-26T02:39:56.236Z,12.80
2022-09-26T02:42:32.827Z,12.70
2022-09-26T02:45:14.686Z,12.60
2022-09-26T02:48:10.582Z,12.80
2022-09-26T02:51:05.058Z,12.60
2022-09-26T02:54:00.731Z,12.50
2022-09-26T02:56:57.745Z,12.60
2022-09-26T02:59:38.776Z,12.60
2022-09-26T03:02:18.731Z,12.70
2022-09-26T03:05:00.683Z,12.50
2022-09-26T03:07:33.472Z,12.50
2022-09-26T03:10:03.797Z,12.60
2022-09-26T03:12:32.530Z,12.40
2022-09-26T03:15:00.691Z,12.50
2022-09-26T03:17:29.283Z,12.10
2022-09-26T03:20:14.749Z,12.10
2022-09-26T03:22:42.517Z,12.20
2022-09-26T03:25:14.895Z,12.30
2022-09-26T03:27:43.982Z,12.30
2022-09-26T03:30:12.218Z,12.40
2022-09-26T03:32:39.296Z,12.20
2022-09-26T03:35:06.616Z,12.10
2022-09-26T03:37:35.121Z,12.10
2022-09-26T03:40:04.168Z,12.20
2022-09-26T03:42:33.464Z,12.10
2022-09-26T03:45:04.244Z,12.20
2022-09-26T03:47:31.367Z,12.30
2022-09-26T03:50:00.425Z,12.30
2022-09-26T03:52:27.533Z,12.30
2022-09-26T03:54:54.296Z,12.50
2022-09-26T03:57:21.511Z,12.40
2022-09-26T03:59:49.757Z,12.30
2022-09-26T04:02:17.235Z,12.50
2022-09-26T04:04:44.052Z,12.20
2022-09-26T04:07:10.808Z,12.20
2022-09-26T04:09:37.557Z,12.10
2022-09-26T04:12:04.282Z,12.20
2022-09-26T04:14:31.583Z,12.30
2022-09-26T04:16:58.478Z,12.10
2022-09-26T04:19:26.639Z,11.90
2022-09-26T04:21:53.328Z,11.80
2022-09-26T04:24:21.295Z,11.80
2022-09-26T04:26:48.147Z,11.90
2022-09-26T04:29:15.375Z,11.90
2022-09-26T04:31:42.348Z,11.70
2022-09-26T04:34:11.234Z,11.80
2022-09-26T04:36:38.642Z,11.90
2022-09-26T04:39:05.655Z,11.80
2022-09-26T04:41:32.564Z,11.80
2022-09-26T04:44:01.345Z,11.90
2022-09-26T04:46:31.058Z,12.10
2022-09-26T04:49:00.067Z,12.10
2022-09-26T04:51:28.465Z,12.20
2022-09-26T04:53:55.863Z,12.00
2022-09-26T04:56:24.635Z,11.90
2022-09-26T04:58:52.052Z,12.00
2022-09-26T05:01:20.587Z,12.10
2022-09-26T05:03:47.770Z,11.90
2022-09-26T05:06:15.659Z,12.00
2022-09-26T05:08:46.828Z,11.90
2022-09-26T05:11:16.059Z,12.00
2022-09-26T05:13:43.732Z,12.00
2022-09-26T05:16:12.471Z,11.90
2022-09-26T05:18:39.564Z,12.00
2022-09-26T05:21:07.457Z,11.90
2022-09-26T05:23:53.734Z,11.90
2022-09-26T05:26:42.663Z,11.90
2022-09-26T05:29:10.247Z,11.70
2022-09-26T05:31:37.945Z,11.80
2022-09-26T05:34:13.087Z,11.90
2022-09-26T05:36:43.011Z,11.90
2022-09-26T05:39:29.894Z,11.90
2022-09-26T05:41:59.040Z,11.90
2022-09-26T05:44:26.570Z,11.90
2022-09-26T05:46:57.236Z,12.00
2022-09-26T05:49:24.415Z,12.10
2022-09-26T05:51:53.174Z,12.10
2022-09-26T05:54:19.870Z,12.00
2022-09-26T05:56:46.503Z,12.10
2022-09-26T05:59:13.373Z,12.10
2022-09-26T06:01:40.161Z,12.20
2022-09-26T06:04:06.981Z,12.10
2022-09-26T06:06:34.267Z,12.00
2022-09-26T06:09:03.840Z,12.10
2022-09-26T06:11:30.910Z,12.10
2022-09-26T06:14:00.592Z,12.10
2022-09-26T06:16:28.777Z,12.20
2022-09-26T06:18:55.864Z,12.30
2022-09-26T06:21:25.049Z,12.50
2022-09-26T06:23:51.929Z,12.50
2022-09-26T06:26:23.810Z,12.50
2022-09-26T06:29:00.735Z,12.60
2022-09-26T06:31:28.728Z,12.70
2022-09-26T06:33:55.791Z,12.80
2022-09-26T06:36:23.998Z,12.90
2022-09-26T06:38:53.852Z,12.80
2022-09-26T06:41:25.222Z,12.70
2022-09-26T06:43:52.105Z,12.80
2022-09-26T06:46:18.921Z,12.80
2022-09-26T06:48:46.645Z,12.70
2022-09-26T06:51:16.182Z,12.80
2022-09-26T06:53:46.006Z,12.80
2022-09-26T06:56:13.446Z,12.80
2022-09-26T06:58:40.381Z,12.80
2022-09-26T07:01:11.190Z,12.90
2022-09-26T07:03:42.941Z,13.00
2022-09-26T07:06:12.071Z,13.10
2022-09-26T07:09:00.939Z,13.10
2022-09-26T07:11:38.202Z,13.00
2022-09-26T07:14:18.685Z,12.80
2022-09-26T07:16:50.114Z,12.80
2022-09-26T07:19:18.598Z,13.00
2022-09-26T07:21:46.334Z,13.00
2022-09-26T07:24:14.408Z,13.00
2022-09-26T07:26:42.249Z,13.10
2022-09-26T07:29:09.861Z,13.20
2022-09-26T07:31:37.237Z,13.20
2022-09-26T07:34:08.800Z,13.20
2022-09-26T07:36:36.319Z,13.00
2022-09-26T07:39:05.292Z,13.10
2022-09-26T07:41:34.640Z,13.00
2022-09-26T07:44:58.949Z,13.00
2022-09-26T07:47:29.010Z,13.00
2022-09-26T07:50:16.585Z,13.10
2022-09-26T07:52:45.484Z,13.10
2022-09-26T07:55:18.251Z,13.10
2022-09-26T07:57:46.592Z,13.10
2022-09-26T08:00:14.840Z,13.10
2022-09-26T08:02:46.916Z,13.00
2022-09-26T08:05:17.694Z,13.10
2022-09-26T08:07:44.490Z,13.10
2022-09-26T08:10:21.332Z,13.10
2022-09-26T08:12:48.794Z,12.90
2022-09-26T08:15:16.316Z,13.00
2022-09-26T08:17:43.488Z,12.90
2022-09-26T08:20:11.048Z,12.90
2022-09-26T08:22:37.871Z,13.00
2022-09-26T08:25:06.973Z,13.00
2022-09-26T08:27:34.569Z,12.90
2022-09-26T08:30:04.386Z,13.10
2022-09-26T08:32:32.364Z,13.00
2022-09-26T08:35:00.351Z,12.90
2022-09-26T08:37:31.206Z,12.90
2022-09-26T08:39:58.085Z,12.90
2022-09-26T08:42:36.457Z,12.80
2022-09-26T08:45:26.050Z,12.60
2022-09-26T08:48:13.742Z,12.70
2022-09-26T08:50:51.582Z,12.80
2022-09-26T08:53:29.602Z,12.80
2022-09-26T08:55:58.480Z,12.90
2022-09-26T08:58:34.864Z,12.90
2022-09-26T09:01:04.342Z,12.90
2022-09-26T09:03:44.017Z,12.70
2022-09-26T09:06:12.702Z,12.60
2022-09-26T09:08:43.480Z,12.60
2022-09-26T09:11:42.154Z,12.60
2022-09-26T09:14:40.586Z,12.60
2022-09-26T09:17:32.476Z,12.50
2022-09-26T09:20:21.248Z,12.50
2022-09-26T09:23:12.164Z,12.60
2022-09-26T09:25:43.484Z,12.50
2022-09-26T09:28:48.100Z,12.50
2022-09-26T09:31:16.586Z,12.60
2022-09-26T09:33:45.575Z,12.50
2022-09-26T09:36:16.479Z,12.60
2022-09-26T09:38:47.009Z,12.60
2022-09-26T09:41:14.675Z,12.60
2022-09-26T09:43:47.623Z,12.60
2022-09-26T09:46:41.360Z,12.70
2022-09-26T09:49:08.179Z,12.50
2022-09-26T09:52:05.919Z,12.60
2022-09-26T09:55:13.776Z,12.70
2022-09-26T09:58:02.808Z,12.60
2022-09-26T10:00:33.514Z,12.70
2022-09-26T10:03:05.279Z,12.70
2022-09-26T10:05:43.756Z,12.70
2022-09-26T10:08:17.503Z,12.60
2022-09-26T10:11:02.278Z,12.70
2022-09-26T10:13:32.714Z,12.60
2022-09-26T10:16:07.392Z,12.60
2022-09-26T10:19:06.198Z,12.60
2022-09-26T10:21:34.580Z,12.80
2022-09-26T10:24:06.816Z,12.80
2022-09-26T10:26:36.802Z,12.90
2022-09-26T10:29:25.069Z,12.80
2022-09-26T10:31:56.254Z,12.70
2022-09-26T10:34:34.358Z,12.70
2022-09-26T10:37:22.810Z,12.80
2022-09-26T10:40:17.422Z,12.70
2022-09-26T10:42:47.057Z,12.80
2022-09-26T10:45:20.251Z,12.90
2022-09-26T10:47:51.246Z,12.90
2022-09-26T10:50:27.824Z,12.90
2022-09-26T10:53:02.801Z,12.90
2022-09-26T10:55:36.554Z,13.00
2022-09-26T10:58:11.395Z,12.90
2022-09-26T11:00:46.613Z,13.00
2022-09-26T11:03:20.259Z,13.10
2022-09-26T11:05:57.455Z,13.20
2022-09-26T11:08:37.714Z,13.30
2022-09-26T11:11:13.939Z,13.20
2022-09-26T11:14:08.912Z,13.30
2022-09-26T11:16:44.411Z,13.20
2022-09-26T11:19:31.606Z,13.30
2022-09-26T11:22:25.867Z,13.30
2022-09-26T11:25:06.773Z,13.30
2022-09-26T11:27:57.829Z,13.30
2022-09-26T11:30:31.252Z,13.30
2022-09-26T11:32:59.984Z,13.50
2022-09-26T11:36:03.828Z,13.60
2022-09-26T11:38:41.830Z,13.70
2022-09-26T11:41:46.162Z,13.70
2022-09-26T11:44:39.244Z,13.70
2022-09-26T11:47:27.180Z,13.80
2022-09-26T11:50:35.570Z,13.80
2022-09-26T11:53:21.134Z,13.90
2022-09-26T11:56:01.425Z,14.00
2022-09-26T11:59:03.550Z,14.00
2022-09-26T12:02:15.854Z,14.10
2022-09-26T12:04:45.072Z,14.10
2022-09-26T12:07:32.105Z,14.10
2022-09-26T12:11:02.828Z,14.10
2022-09-26T12:13:59.772Z,14.10
2022-09-26T12:16:41.034Z,14.00
2022-09-26T12:19:22.996Z,14.00
2022-09-26T12:22:31.016Z,14.00
2022-09-26T12:25:36.079Z,13.90
2022-09-26T12:28:16.368Z,13.90
2022-09-26T12:31:18.816Z,13.90
2022-09-26T12:34:21.515Z,13.90
2022-09-26T12:37:18.669Z,13.90
2022-09-26T12:40:11.007Z,14.00
2022-09-26T12:43:14.358Z,13.90
2022-09-26T12:46:17.981Z,13.80
2022-09-26T12:49:22.432Z,13.80
2022-09-26T12:51:55.570Z,13.90
2022-09-26T12:55:00.446Z,13.90
2022-09-26T12:57:50.725Z,13.90
2022-09-26T13:00:25.794Z,13.90
2022-09-26T13:03:19.685Z,13.90
2022-09-26T13:06:13.272Z,13.90
2022-09-26T13:08:42.680Z,13.80
2022-09-26T13:11:13.941Z,13.60
2022-09-26T13:14:15.439Z,13.60
2022-09-26T13:16:57.514Z,13.50
2022-09-26T13:19:35.803Z,13.30
2022-09-26T13:25:11.353Z,13.40
2022-09-26T13:27:44.143Z,13.40
2022-09-26T13:30:35.694Z,13.50
2022-09-26T13:33:21.102Z,13.40
2022-09-26T13:35:54.192Z,13.40
2022-09-26T13:38:48.953Z,13.50
2022-09-26T13:41:27.941Z,13.50
2022-09-26T13:44:17.545Z,13.60
2022-09-26T13:47:19.679Z,13.50
2022-09-26T13:50:22.292Z,13.70
2022-09-26T13:53:13.168Z,13.70
2022-09-26T13:55:42.734Z,13.70
2022-09-26T13:58:22.117Z,13.80
2022-09-26T14:00:53.060Z,13.80
2022-09-26T14:03:19.834Z,13.80
2022-09-26T14:05:50.794Z,13.80
2022-09-26T14:08:55.442Z,13.80
2022-09-26T14:11:27.798Z,13.60
2022-09-26T14:14:23.760Z,13.60
2022-09-26T14:16:52.970Z,13.60
2022-09-26T14:19:43.323Z,13.50
2022-09-26T14:22:21.437Z,13.40
2022-09-26T14:24:55.872Z,13.50
2022-09-26T14:27:42.946Z,13.50
2022-09-26T14:30:26.685Z,13.50
2022-09-26T14:33:06.914Z,13.40
2022-09-26T14:35:38.611Z,13.30
2022-09-26T14:38:14.947Z,13.20
2022-09-26T14:40:54.437Z,13.30
2022-09-26T14:43:27.355Z,13.30
2022-09-26T14:46:07.003Z,13.20
2022-09-26T14:48:41.855Z,13.10
2022-09-26T14:51:12.258Z,13.10
2022-09-26T14:53:48.377Z,13.10
2022-09-26T14:56:27.320Z,13.00
2022-09-26T14:59:13.686Z,13.10
2022-09-26T15:01:46.772Z,13.10
2022-09-26T15:04:21.071Z,13.10
2022-09-26T15:07:21.301Z,13.20
2022-09-26T15:10:09.845Z,13.10
2022-09-26T15:12:56.602Z,13.20
2022-09-26T15:15:37.494Z,13.10
2022-09-26T15:18:16.579Z,13.10
2022-09-26T15:20:51.821Z,13.20
2022-09-26T15:23:26.614Z,13.20
2022-09-26T15:25:56.287Z,13.10
2022-09-26T15:28:24.600Z,13.10
2022-09-26T15:31:25.059Z,13.10
2022-09-26T15:34:04.421Z,13.00
2022-09-26T15:36:36.711Z,12.90
2022-09-26T15:39:32.125Z,12.90
2022-09-26T15:42:18.466Z,12.90
2022-09-26T15:44:49.178Z,12.80
2022-09-26T15:47:34.003Z,12.90
2022-09-26T15:50:20.841Z,12.90
2022-09-26T15:53:16.376Z,12.90
2022-09-26T15:55:49.673Z,12.80
2022-09-26T15:58:22.166Z,12.80
2022-09-26T16:00:55.429Z,12.80
2022-09-26T16:03:46.547Z,12.80
2022-09-26T16:06:36.091Z,12.90
2022-09-26T16:09:18.475Z,12.80
2022-09-26T16:11:48.323Z,12.80
2022-09-26T16:14:29.250Z,12.90
2022-09-26T16:17:18.983Z,12.90
2022-09-26T16:19:48.623Z,12.90
2022-09-26T16:22:36.855Z,12.80
2022-09-26T16:25:15.680Z,12.70
2022-09-26T16:27:44.952Z,12.70
2022-09-26T16:30:37.631Z,12.80
2022-09-26T16:33:10.210Z,12.70
2022-09-26T16:35:47.062Z,12.70
2022-09-26T16:38:29.941Z,12.70
2022-09-26T16:41:09.263Z,12.60
2022-09-26T16:43:38.624Z,12.60
2022-09-26T16:46:11.422Z,12.60
2022-09-26T16:48:52.219Z,12.60
2022-09-26T16:51:21.271Z,12.60
2022-09-26T16:53:56.029Z,12.70
2022-09-26T16:56:28.575Z,12.70
2022-09-26T16:59:05.071Z,12.70
2022-09-26T17:01:50.193Z,12.70
2022-09-26T17:04:24.095Z,12.70
2022-09-26T17:06:51.571Z,12.60
2022-09-26T17:09:28.192Z,12.60
2022-09-26T17:12:13.602Z,12.50
2022-09-26T17:14:42.001Z,12.40
2022-09-26T17:17:16.117Z,12.50
2022-09-26T17:19:45.234Z,12.50
2022-09-26T17:22:23.429Z,12.50
2022-09-26T17:24:51.932Z,12.40
2022-09-26T17:27:35.376Z,12.40
2022-09-26T17:30:14.403Z,12.40
2022-09-26T17:32:46.910Z,12.40
2022-09-26T17:35:21.639Z,12.40
2022-09-26T17:37:51.560Z,12.40
2022-09-26T17:40:24.154Z,12.40
2022-09-26T17:42:57.381Z,12.40
2022-09-26T17:45:38.333Z,12.30
2022-09-26T17:48:11.928Z,12.30
2022-09-26T17:50:39.789Z,12.20
2022-09-26T17:53:10.366Z,12.10
2022-09-26T17:55:37.347Z,12.20
2022-09-26T17:58:09.401Z,12.10
2022-09-26T18:00:40.361Z,12.10
2022-09-26T18:03:18.945Z,12.20
2022-09-26T18:05:46.298Z,12.20
2022-09-26T18:08:36.270Z,12.30
2022-09-26T18:11:06.116Z,12.20
2022-09-26T18:13:40.689Z,12.20
2022-09-26T18:16:11.175Z,12.20
2022-09-26T18:18:38.128Z,12.20
2022-09-26T18:21:09.860Z,12.20
2022-09-26T18:23:43.230Z,12.30
2022-09-26T18:26:24.821Z,12.30
2022-09-26T18:31:41.133Z,12.30
2022-09-26T18:34:20.437Z,12.30
2022-09-26T18:36:48.903Z,12.30
2022-09-26T18:39:15.855Z,12.40
2022-09-26T18:41:45.066Z,12.40
2022-09-26T18:44:20.338Z,12.40
2022-09-26T18:46:49.388Z,12.40
2022-09-26T18:49:17.443Z,12.40
2022-09-26T18:51:45.940Z,12.40
2022-09-26T18:54:17.442Z,12.50
2022-09-26T18:57:04.118Z,12.50
2022-09-26T18:59:31.840Z,12.40
2022-09-26T19:07:40.559Z,12.40
2022-09-26T19:13:06.539Z,12.30
2022-09-26T19:15:37.609Z,12.30
2022-09-26T19:18:10.664Z,12.30
2022-09-26T19:20:47.306Z,12.40
2022-09-26T19:23:14.489Z,12.60
2022-09-26T19:25:42.257Z,12.60
2022-09-26T19:28:18.372Z,12.70
2022-09-26T19:30:45.561Z,12.50
2022-09-26T19:33:12.531Z,12.60
2022-09-26T19:35:40.006Z,12.50
2022-09-26T19:38:22.637Z,12.50
2022-09-26T19:40:53.740Z,12.50
2022-09-26T19:43:21.666Z,12.40
2022-09-26T19:45:52.455Z,12.20
2022-09-26T19:48:22.088Z,12.20
2022-09-26T19:50:51.030Z,12.10
2022-09-26T19:53:20.470Z,12.10
2022-09-26T19:55:50.478Z,12.10
2022-09-26T19:58:22.975Z,12.10
2022-09-26T20:00:52.386Z,12.00
2022-09-26T20:03:32.709Z,11.90
2022-09-26T20:05:59.568Z,11.60
2022-09-26T20:08:27.558Z,11.60
2022-09-26T20:10:58.171Z,11.70
2022-09-26T20:13:25.148Z,11.70
2022-09-26T20:15:52.295Z,11.70
2022-09-26T20:18:22.781Z,11.70
2022-09-26T20:20:57.313Z,11.70
2022-09-26T20:23:26.546Z,11.70
2022-09-26T20:25:55.527Z,11.70
2022-09-26T20:28:23.582Z,11.80
2022-09-26T20:30:54.735Z,11.80
2022-09-26T20:33:23.749Z,11.80
2022-09-26T20:36:02.887Z,11.80
2022-09-26T20:38:36.628Z,11.80
2022-09-26T20:41:13.486Z,11.80
2022-09-26T20:43:41.907Z,11.70
2022-09-26T20:46:10.877Z,11.70
2022-09-26T20:48:40.389Z,11.70
2022-09-26T20:51:14.183Z,11.70
2022-09-26T20:53:42.271Z,11.80
2022-09-26T20:56:17.077Z,11.80
2022-09-26T21:01:18.375Z,11.80
2022-09-26T21:03:50.851Z,11.80
2022-09-26T21:09:27.427Z,11.90
2022-09-26T21:12:19.194Z,11.90
2022-09-26T21:14:48.692Z,11.90
2022-09-26T21:20:23.417Z,11.90
2022-09-26T21:25:37.733Z,11.90
2022-09-26T21:30:51.198Z,11.80
2022-09-26T21:33:22.040Z,11.90
2022-09-26T21:35:50.214Z,11.80
2022-09-26T21:38:19.794Z,12.00
2022-09-26T21:40:49.756Z,11.90
2022-09-26T21:43:20.584Z,12.00
2022-09-26T21:45:47.539Z,12.10
2022-09-26T21:48:15.773Z,12.00
2022-09-26T21:50:56.800Z,12.10
2022-09-26T21:53:31.645Z,12.10
2022-09-26T21:56:07.767Z,12.00
2022-09-26T21:58:38.344Z,12.10
2022-09-26T22:01:05.347Z,12.10
2022-09-26T22:03:32.255Z,12.00
2022-09-26T22:06:01.505Z,12.00
2022-09-26T22:08:33.101Z,11.90
2022-09-26T22:11:00.115Z,11.90
2022-09-26T22:13:27.246Z,11.80
2022-09-26T22:15:54.214Z,11.60
2022-09-26T22:18:21.292Z,11.60
2022-09-26T22:20:56.595Z,11.40
2022-09-26T22:23:23.513Z,11.40
2022-09-26T22:25:51.420Z,11.50
2022-09-26T22:28:18.622Z,11.40
2022-09-26T22:30:48.289Z,11.30
2022-09-26T22:33:15.552Z,11.30
2022-09-26T22:35:47.190Z,11.00
2022-09-26T22:38:14.683Z,11.10
2022-09-26T22:40:41.610Z,11.00
2022-09-26T22:43:08.374Z,10.90
2022-09-26T22:45:35.265Z,10.70
2022-09-26T22:48:02.354Z,10.50
2022-09-26T22:50:29.420Z,10.60
2022-09-26T22:52:59.024Z,10.60
2022-09-26T22:55:25.940Z,10.50
2022-09-26T22:57:52.836Z,10.60
2022-09-26T23:00:19.826Z,10.60
2022-09-26T23:02:46.760Z,10.50
2022-09-26T23:05:13.957Z,10.60
2022-09-26T23:07:40.791Z,10.70
2022-09-26T23:10:08.026Z,10.70
2022-09-26T23:12:34.840Z,10.70
2022-09-26T23:15:01.581Z,10.70
2022-09-26T23:17:28.953Z,10.70
2022-09-26T23:19:55.797Z,10.60
2022-09-26T23:22:22.651Z,10.80
2022-09-26T23:24:49.546Z,10.80
2022-09-26T23:27:18.555Z,10.80
2022-09-26T23:29:45.409Z,10.80
2022-09-26T23:32:18.551Z,10.80
2022-09-26T23:35:03.931Z,10.90
2022-09-26T23:37:55.760Z,10.90
2022-09-26T23:43:52.042Z,10.70
2022-09-26T23:46:18.108Z,10.70
2022-09-26T23:48:45.464Z,10.80
2022-09-26T23:51:14.755Z,10.70
2022-09-26T23:53:41.528Z,10.60
2022-09-26T23:56:14.790Z,10.70
2022-09-26T23:58:42.276Z,10.70
